Novato, CA (94945)

4:44 PM PST on February 12, 2016 (GMT -0800)
Green Point | | Change Station
CLOSE
Current Station
Personal Weather Station
Location: Novato, CA
Elevation: 108 ft
Nearby Weather Stations

Elev 108 ft 38.11 °N, 122.53 °W | Updated 34 seconds ago

Clear
Clear
64.2 °F
Feels Like 64.2 °F
N
4.2
Wind Variable Wind from WSW
Gusts 4.9 mph

Today
High -- | Low -- °F
--% Chance of Precip.
Yesterday
High -- | Low -- °F
Precip. -- in
Pressure 30.20 in
Visibility 10.0 miles
Clouds Clear
Dew Point 55 °F
Humidity 73%
Rainfall 0.00 in
Snow Depth Not available.
7:04 AM 5:45 PM
Waxing Crescent, 25% visible
METAR KO69 130035Z AUTO 30007KT 10SM CLR 17/14 A3020 RMK AO1
Pressure 30.20 in
Visibility 10.0 miles
Clouds Clear
Dew Point 55 °F
Humidity 73%
Rainfall 0.00 in
Snow Depth Not available.
7:04 AM 5:45 PM
Waxing Crescent, 25% visible
METAR KO69 130035Z AUTO 30007KT 10SM CLR 17/14 A3020 RMK AO1

10-Day Weather Forecast

Almanac

Astronomy

Feb. 12, 2016 Rise Set
Actual Time
Civil Twilight
Nautical Twilight
Astronomical Twilight
Moon
Length of Visible Light
Length of Day
Tomorrow will be .
, % of the Moon is Illuminated

Today's Extremes

State Highs State Lows

Community

WunderPhotos

Upload Photos

1,892,444 photos uploaded!

WunderBlog® & News

Nearby

Air Quality

  Air Quality AQ Index Pollutant
Not available.

Snow Depth

Station Depth Elevation

Earthquake Activity

City Distance Mag. Time & Date
Minimum magnitude displayed is 2.5.

Coastal Water Temperatures

Place Temperature

Stations

Nearby Weather Stations

Station Location Temp. Windchill Dew Point Humidity Wind Precip. Elev Updated Type
                   

Watches & Warnings

There are currently no watches in effect.